createdAt,value
2018-11-07T00:00:37.554Z,71.10
2018-11-07T00:01:44.578Z,71.07
2018-11-07T00:02:51.491Z,71.00
2018-11-07T00:03:58.271Z,71.01
2018-11-07T00:05:05.041Z,71.08
2018-11-07T00:06:11.856Z,71.15
2018-11-07T00:07:18.626Z,71.17
2018-11-07T00:08:25.526Z,71.18
2018-11-07T00:09:32.247Z,71.19
2018-11-07T00:10:39.038Z,71.17
2018-11-07T00:11:45.853Z,71.14
2018-11-07T00:12:52.707Z,71.14
2018-11-07T00:13:59.533Z,71.12
2018-11-07T00:15:06.301Z,71.07
2018-11-07T00:16:13.155Z,71.04
2018-11-07T00:17:19.959Z,71.01
2018-11-07T00:18:26.785Z,71.00
2018-11-07T00:19:33.593Z,70.91
2018-11-07T00:20:40.337Z,70.89
2018-11-07T00:21:47.185Z,70.84
2018-11-07T00:22:53.979Z,70.85
2018-11-07T00:24:00.733Z,70.89
2018-11-07T00:25:07.542Z,70.93
2018-11-07T00:26:14.686Z,71.03
2018-11-07T00:27:21.438Z,71.02
2018-11-07T00:28:28.238Z,71.03
2018-11-07T00:29:34.992Z,70.98
2018-11-07T00:30:41.747Z,70.99
2018-11-07T00:31:48.545Z,70.95
2018-11-07T00:32:55.358Z,70.92
2018-11-07T00:34:02.123Z,70.90
2018-11-07T00:35:09.098Z,70.86
2018-11-07T00:36:16.158Z,70.83
2018-11-07T00:37:22.935Z,70.83
2018-11-07T00:38:29.740Z,70.85
2018-11-07T00:39:36.527Z,70.78
2018-11-07T00:40:43.264Z,70.77
2018-11-07T00:41:50.019Z,70.81
2018-11-07T00:42:56.794Z,70.81
2018-11-07T00:44:03.528Z,70.80
2018-11-07T00:45:10.354Z,70.80
2018-11-07T00:46:17.487Z,70.77
2018-11-07T00:47:24.251Z,70.78
2018-11-07T00:48:30.978Z,70.73
2018-11-07T00:49:37.719Z,70.71
2018-11-07T00:50:44.451Z,70.66
2018-11-07T00:51:51.155Z,70.63
2018-11-07T00:52:57.966Z,70.65
2018-11-07T00:54:04.690Z,70.66
2018-11-07T00:55:11.431Z,70.74
2018-11-07T00:56:18.463Z,70.77
2018-11-07T00:57:25.222Z,70.76
2018-11-07T00:58:32.058Z,70.75
2018-11-07T00:59:38.806Z,70.76
2018-11-07T01:00:45.581Z,70.73
2018-11-07T01:01:52.414Z,70.70
2018-11-07T01:02:59.147Z,70.68
2018-11-07T01:04:05.890Z,70.61
2018-11-07T01:05:12.794Z,70.55
2018-11-07T01:06:19.727Z,70.54
2018-11-07T01:07:26.575Z,70.53
2018-11-07T01:08:33.315Z,70.57
2018-11-07T01:09:40.141Z,70.64
2018-11-07T01:10:46.919Z,70.67
2018-11-07T01:11:53.682Z,70.69
2018-11-07T01:13:00.434Z,70.69
2018-11-07T01:14:07.286Z,70.67
2018-11-07T01:15:14.250Z,70.68
2018-11-07T01:16:23.130Z,70.64
2018-11-07T01:17:27.861Z,70.65
2018-11-07T01:18:34.622Z,70.60
2018-11-07T01:19:41.669Z,70.59
2018-11-07T01:20:48.397Z,70.57
2018-11-07T01:21:55.171Z,70.52
2018-11-07T01:23:01.934Z,70.51
2018-11-07T01:24:08.771Z,70.46
2018-11-07T01:25:15.566Z,70.46
2018-11-07T01:26:22.314Z,70.46
2018-11-07T01:27:29.042Z,70.50
2018-11-07T01:28:35.810Z,70.54
2018-11-07T01:29:42.551Z,70.57
2018-11-07T01:30:49.291Z,70.55
2018-11-07T01:31:56.047Z,70.56
2018-11-07T01:33:02.787Z,70.51
2018-11-07T01:34:09.609Z,70.52
2018-11-07T01:35:16.347Z,70.51
2018-11-07T01:36:23.094Z,70.51
2018-11-07T01:37:29.838Z,70.46
2018-11-07T01:38:36.658Z,70.47
2018-11-07T01:39:43.435Z,70.48
2018-11-07T01:40:50.194Z,70.47
2018-11-07T01:41:57.056Z,70.50
2018-11-07T01:43:03.749Z,70.59
2018-11-07T01:44:10.558Z,70.60
2018-11-07T01:45:17.347Z,70.65
2018-11-07T01:46:24.069Z,70.63
2018-11-07T01:47:30.847Z,70.71
2018-11-07T01:48:37.602Z,70.73
2018-11-07T01:49:44.366Z,70.73
2018-11-07T01:50:51.119Z,70.71
2018-11-07T01:51:57.868Z,70.74
2018-11-07T01:53:04.610Z,70.75
2018-11-07T01:54:11.362Z,70.79
2018-11-07T01:55:18.174Z,70.80
2018-11-07T01:56:24.933Z,70.79
2018-11-07T01:57:31.806Z,70.76
2018-11-07T01:58:38.561Z,70.82
2018-11-07T01:59:45.394Z,70.89
2018-11-07T02:00:52.151Z,70.96
2018-11-07T02:01:58.890Z,70.98
2018-11-07T02:03:05.647Z,71.01
2018-11-07T02:04:12.467Z,71.01
2018-11-07T02:05:19.356Z,71.00
2018-11-07T02:06:26.193Z,71.04
2018-11-07T02:07:32.943Z,71.10
2018-11-07T02:08:43.198Z,71.13
2018-11-07T02:09:46.473Z,71.16
2018-11-07T02:10:53.219Z,71.18
2018-11-07T02:11:59.959Z,71.22
2018-11-07T02:13:06.729Z,71.22
2018-11-07T02:14:13.619Z,71.26
2018-11-07T02:15:20.385Z,71.30
2018-11-07T02:16:27.136Z,71.35
2018-11-07T02:17:33.962Z,71.37
2018-11-07T02:18:40.702Z,71.41
2018-11-07T02:19:47.486Z,71.43
2018-11-07T02:20:54.221Z,71.45
2018-11-07T02:22:00.962Z,71.48
2018-11-07T02:23:07.730Z,71.53
2018-11-07T02:24:14.569Z,71.57
2018-11-07T02:25:21.318Z,71.60
2018-11-07T02:26:28.140Z,71.60
2018-11-07T02:27:34.823Z,71.66
2018-11-07T02:28:41.582Z,71.75
2018-11-07T02:29:48.370Z,71.76
2018-11-07T02:30:55.087Z,71.83
2018-11-07T02:32:01.830Z,71.88
2018-11-07T02:33:08.699Z,71.90
2018-11-07T02:34:15.445Z,71.91
2018-11-07T02:35:22.224Z,71.95
2018-11-07T02:36:28.947Z,71.98
2018-11-07T02:37:35.694Z,72.02
2018-11-07T02:38:42.442Z,72.05
2018-11-07T02:39:49.209Z,72.08
2018-11-07T02:40:55.948Z,72.12
2018-11-07T02:42:02.877Z,72.13
2018-11-07T02:43:09.476Z,72.12
2018-11-07T02:44:16.246Z,72.17
2018-11-07T02:45:23.102Z,72.17
2018-11-07T02:46:29.850Z,72.20
2018-11-07T02:47:36.634Z,72.26
2018-11-07T02:48:43.800Z,72.31
2018-11-07T02:49:50.590Z,72.33
2018-11-07T02:50:57.339Z,72.35
2018-11-07T02:52:04.118Z,72.35
2018-11-07T02:53:10.982Z,72.33
2018-11-07T02:54:17.720Z,72.30
2018-11-07T02:55:24.489Z,72.31
2018-11-07T02:56:31.377Z,72.25
2018-11-07T02:57:38.113Z,72.24
2018-11-07T02:58:44.976Z,72.29
2018-11-07T02:59:51.765Z,72.34
2018-11-07T03:00:58.501Z,72.35
2018-11-07T03:02:05.295Z,72.30
2018-11-07T03:03:12.139Z,72.33
2018-11-07T03:04:18.898Z,72.30
2018-11-07T03:05:25.663Z,72.29
2018-11-07T03:06:32.512Z,72.25
2018-11-07T03:07:39.287Z,72.27
2018-11-07T03:08:46.269Z,72.24
2018-11-07T03:09:53.080Z,72.23
2018-11-07T03:10:59.845Z,72.24
2018-11-07T03:12:06.878Z,72.18
2018-11-07T03:13:13.634Z,72.18
2018-11-07T03:14:20.391Z,72.19
2018-11-07T03:15:27.138Z,72.22
2018-11-07T03:16:33.882Z,72.17
2018-11-07T03:17:40.801Z,72.11
2018-11-07T03:18:47.564Z,72.08
2018-11-07T03:19:54.369Z,72.14
2018-11-07T03:21:01.183Z,72.15
2018-11-07T03:22:07.949Z,72.13
2018-11-07T03:23:14.702Z,72.16
2018-11-07T03:24:21.430Z,72.13
2018-11-07T03:25:28.193Z,72.10
2018-11-07T03:26:35.026Z,72.10
2018-11-07T03:27:41.783Z,72.07
2018-11-07T03:28:48.558Z,72.09
2018-11-07T03:29:55.323Z,72.07
2018-11-07T03:31:02.111Z,72.05
2018-11-07T03:32:08.936Z,72.06
2018-11-07T03:33:15.694Z,72.10
2018-11-07T03:34:22.487Z,72.08
2018-11-07T03:35:29.316Z,72.07
2018-11-07T03:36:36.058Z,72.04
2018-11-07T03:37:42.776Z,71.97
2018-11-07T03:38:49.582Z,71.93
2018-11-07T03:39:56.472Z,71.92
2018-11-07T03:41:03.186Z,71.99
2018-11-07T03:42:09.999Z,72.07
2018-11-07T03:43:16.778Z,72.12
2018-11-07T03:44:23.629Z,72.13
2018-11-07T03:45:30.506Z,72.14
2018-11-07T03:46:37.342Z,72.14
2018-11-07T03:47:44.083Z,72.12
2018-11-07T03:48:50.898Z,72.08
2018-11-07T03:49:57.627Z,72.06
2018-11-07T03:51:04.403Z,72.10
2018-11-07T03:52:11.366Z,72.10
2018-11-07T03:53:18.237Z,72.12
2018-11-07T03:54:24.981Z,72.11
2018-11-07T03:55:31.711Z,72.13
2018-11-07T03:56:38.478Z,72.12
2018-11-07T03:57:45.225Z,72.05
2018-11-07T03:58:52.063Z,72.07
2018-11-07T03:59:58.835Z,72.09
2018-11-07T04:01:05.638Z,72.10
2018-11-07T04:02:12.459Z,72.12
2018-11-07T04:03:19.263Z,72.11
2018-11-07T04:04:26.039Z,72.14
2018-11-07T04:05:32.829Z,72.09
2018-11-07T04:06:39.612Z,72.11
2018-11-07T04:07:46.362Z,72.11
2018-11-07T04:08:53.185Z,72.10
2018-11-07T04:09:59.942Z,72.06
2018-11-07T04:11:06.951Z,72.04
2018-11-07T04:12:13.744Z,72.03
2018-11-07T04:13:20.534Z,72.10
2018-11-07T04:14:27.342Z,72.18
2018-11-07T04:15:34.211Z,72.22
2018-11-07T04:16:41.137Z,72.27
2018-11-07T04:17:47.980Z,72.30
2018-11-07T04:18:54.765Z,72.32
2018-11-07T04:20:01.594Z,72.31
2018-11-07T04:21:08.661Z,72.31
2018-11-07T04:22:15.594Z,72.33
2018-11-07T04:23:22.426Z,72.38
2018-11-07T04:24:29.233Z,72.40
2018-11-07T04:25:36.026Z,72.39
2018-11-07T04:26:42.886Z,72.39
2018-11-07T04:27:49.722Z,72.37
2018-11-07T04:28:56.610Z,72.36
2018-11-07T04:30:03.440Z,72.41
2018-11-07T04:31:10.106Z,72.43
2018-11-07T04:32:16.868Z,72.44
2018-11-07T04:33:23.642Z,72.46
2018-11-07T04:34:30.435Z,72.49
2018-11-07T04:35:37.234Z,72.51
2018-11-07T04:36:44.028Z,72.54
2018-11-07T04:37:50.821Z,72.55
2018-11-07T04:38:57.679Z,72.58
2018-11-07T04:40:04.443Z,72.58
2018-11-07T04:41:11.204Z,72.58
2018-11-07T04:42:18.040Z,72.63
2018-11-07T04:43:24.872Z,72.66
2018-11-07T04:44:31.672Z,72.69
2018-11-07T04:45:38.559Z,72.70
2018-11-07T04:46:45.438Z,72.71
2018-11-07T04:47:52.305Z,72.71
2018-11-07T04:48:59.189Z,72.67
2018-11-07T04:50:06.064Z,72.64
2018-11-07T04:51:13.086Z,72.69
2018-11-07T04:52:19.944Z,72.72
2018-11-07T04:53:26.766Z,72.73
2018-11-07T04:54:33.583Z,72.74
2018-11-07T04:55:40.409Z,72.71
2018-11-07T04:56:47.207Z,72.74
2018-11-07T04:57:54.011Z,72.74
2018-11-07T04:59:00.846Z,72.76
2018-11-07T05:00:07.785Z,72.81
2018-11-07T05:01:14.403Z,72.81
2018-11-07T05:02:21.243Z,72.82
2018-11-07T05:03:28.266Z,72.79
2018-11-07T05:04:35.038Z,72.79
2018-11-07T05:05:42.110Z,72.75
2018-11-07T05:06:48.847Z,72.72
2018-11-07T05:07:55.766Z,72.69
2018-11-07T05:09:02.480Z,72.71
2018-11-07T05:10:09.278Z,72.74
2018-11-07T05:11:16.301Z,72.79
2018-11-07T05:12:23.086Z,72.86
2018-11-07T05:13:29.922Z,72.93
2018-11-07T05:14:36.727Z,73.00
2018-11-07T05:15:43.580Z,73.06
2018-11-07T05:16:50.397Z,73.11
2018-11-07T05:17:57.209Z,73.16
2018-11-07T05:19:04.098Z,73.15
2018-11-07T05:20:10.947Z,73.16
2018-11-07T05:21:17.763Z,73.17
2018-11-07T05:22:24.662Z,73.17
2018-11-07T05:23:31.505Z,73.13
2018-11-07T05:24:38.342Z,73.11
2018-11-07T05:25:45.130Z,73.08
2018-11-07T05:26:51.918Z,73.06
2018-11-07T05:27:58.818Z,73.08
2018-11-07T05:29:05.655Z,73.07
2018-11-07T05:30:12.549Z,73.07
2018-11-07T05:31:19.403Z,73.06
2018-11-07T05:32:26.272Z,73.02
2018-11-07T05:33:33.179Z,72.99
2018-11-07T05:34:39.970Z,73.02
2018-11-07T05:35:46.734Z,73.03
2018-11-07T05:36:53.549Z,73.06
2018-11-07T05:38:00.352Z,73.04
2018-11-07T05:39:07.375Z,73.04
2018-11-07T05:40:13.962Z,73.05
2018-11-07T05:41:20.893Z,73.06
2018-11-07T05:42:27.601Z,73.11
2018-11-07T05:43:34.435Z,73.09
2018-11-07T05:44:41.235Z,73.11
2018-11-07T05:45:48.124Z,73.11
2018-11-07T05:46:55.010Z,73.11
2018-11-07T05:48:01.909Z,73.13
2018-11-07T05:49:08.843Z,73.11
2018-11-07T05:50:15.618Z,73.09
2018-11-07T05:51:22.419Z,73.09
2018-11-07T05:52:29.230Z,73.11
2018-11-07T05:53:36.026Z,73.07
2018-11-07T05:54:42.855Z,73.06
2018-11-07T05:55:49.626Z,73.03
2018-11-07T05:56:56.411Z,72.96
2018-11-07T05:58:03.189Z,72.95
2018-11-07T05:59:10.000Z,72.92
2018-11-07T06:00:16.810Z,72.95
2018-11-07T06:01:25.505Z,72.96
2018-11-07T06:02:30.733Z,73.00
2018-11-07T06:03:37.538Z,73.01
2018-11-07T06:04:44.339Z,73.06
2018-11-07T06:05:51.162Z,73.08
2018-11-07T06:06:57.926Z,73.09
2018-11-07T06:08:04.727Z,73.10
2018-11-07T06:09:11.523Z,73.15
2018-11-07T06:10:18.286Z,73.20
2018-11-07T06:11:25.112Z,73.28
2018-11-07T06:12:31.849Z,73.32
2018-11-07T06:13:38.630Z,73.32
2018-11-07T06:14:45.540Z,73.34
2018-11-07T06:15:52.294Z,73.44
2018-11-07T06:16:59.094Z,73.50
2018-11-07T06:18:05.908Z,73.54
2018-11-07T06:19:12.679Z,73.59
2018-11-07T06:20:19.497Z,73.61
2018-11-07T06:21:26.301Z,73.69
2018-11-07T06:22:33.102Z,73.74
2018-11-07T06:23:39.942Z,73.77
2018-11-07T06:24:46.835Z,73.80
2018-11-07T06:25:53.614Z,73.81
2018-11-07T06:27:00.446Z,73.82
2018-11-07T06:28:07.400Z,73.87
2018-11-07T06:29:14.253Z,73.91
2018-11-07T06:30:21.042Z,73.98
2018-11-07T06:31:27.811Z,74.03
2018-11-07T06:32:34.646Z,74.08
2018-11-07T06:33:41.458Z,74.13
2018-11-07T06:34:48.694Z,74.16
2018-11-07T06:35:55.038Z,74.22
2018-11-07T06:37:01.827Z,74.27
2018-11-07T06:38:08.848Z,74.35
2018-11-07T06:39:15.906Z,74.36
2018-11-07T06:40:22.682Z,74.38
2018-11-07T06:41:29.518Z,74.41
2018-11-07T06:42:36.394Z,74.40
2018-11-07T06:43:43.318Z,74.45
2018-11-07T06:44:50.173Z,74.46
2018-11-07T06:45:57.307Z,74.48
2018-11-07T06:47:04.115Z,74.50
2018-11-07T06:48:10.927Z,74.50
2018-11-07T06:49:17.747Z,74.50
2018-11-07T06:50:24.506Z,74.50
2018-11-07T06:51:31.262Z,74.52
2018-11-07T06:52:38.080Z,74.52
2018-11-07T06:53:44.905Z,74.50
2018-11-07T06:54:51.773Z,74.53
2018-11-07T06:55:58.550Z,74.49
2018-11-07T06:57:05.323Z,74.54
2018-11-07T06:58:12.103Z,74.54
2018-11-07T06:59:18.910Z,74.58
2018-11-07T07:00:25.690Z,74.54
2018-11-07T07:01:32.705Z,74.60
2018-11-07T07:02:39.484Z,74.57
2018-11-07T07:03:46.419Z,74.61
2018-11-07T07:04:53.281Z,74.65
2018-11-07T07:06:00.167Z,74.67
2018-11-07T07:07:06.956Z,74.71
2018-11-07T07:08:13.738Z,74.74
2018-11-07T07:09:20.554Z,74.78
2018-11-07T07:10:27.318Z,74.80
2018-11-07T07:11:34.061Z,74.85
2018-11-07T07:12:40.962Z,74.83
2018-11-07T07:13:47.819Z,74.92
2018-11-07T07:14:54.665Z,74.94
2018-11-07T07:16:01.419Z,75.03
2018-11-07T07:17:08.287Z,75.05
2018-11-07T07:18:15.141Z,75.09
2018-11-07T07:19:21.842Z,75.12
2018-11-07T07:20:28.578Z,75.17
2018-11-07T07:21:35.399Z,75.18
2018-11-07T07:22:42.158Z,75.19
2018-11-07T07:23:49.198Z,75.25
2018-11-07T07:24:56.010Z,75.32
2018-11-07T07:26:02.776Z,75.38
2018-11-07T07:27:09.614Z,75.41
2018-11-07T07:28:16.403Z,75.49
2018-11-07T07:29:23.172Z,75.54
2018-11-07T07:30:30.011Z,75.58
2018-11-07T07:31:36.782Z,75.66
2018-11-07T07:32:43.535Z,75.76
2018-11-07T07:33:50.687Z,75.83
2018-11-07T07:34:57.443Z,75.87
2018-11-07T07:36:04.197Z,75.94
2018-11-07T07:37:10.969Z,76.03
2018-11-07T07:38:17.803Z,76.13
2018-11-07T07:39:24.566Z,76.22
2018-11-07T07:40:31.347Z,76.31
2018-11-07T07:41:38.182Z,76.39
2018-11-07T07:42:44.983Z,76.48
2018-11-07T07:43:51.672Z,76.57
2018-11-07T07:44:58.565Z,76.66
2018-11-07T07:46:05.347Z,76.72
2018-11-07T07:47:12.134Z,76.83
2018-11-07T07:48:18.947Z,76.96
2018-11-07T07:49:25.824Z,77.09
2018-11-07T07:50:32.706Z,77.19
2018-11-07T07:51:39.486Z,77.29
2018-11-07T07:52:46.213Z,77.38
2018-11-07T07:53:52.975Z,77.50
2018-11-07T07:54:59.730Z,77.63
2018-11-07T07:56:06.534Z,77.76
2018-11-07T07:57:13.285Z,77.88
2018-11-07T07:58:20.130Z,77.98
2018-11-07T07:59:26.878Z,78.10
2018-11-07T08:00:33.663Z,78.23
2018-11-07T08:01:40.413Z,78.38
2018-11-07T08:02:47.166Z,78.54
2018-11-07T08:03:54.074Z,78.65
2018-11-07T08:05:00.921Z,78.80
2018-11-07T08:06:07.872Z,78.97
2018-11-07T08:07:14.576Z,79.12
2018-11-07T08:08:21.327Z,79.25
2018-11-07T08:09:28.102Z,79.41
2018-11-07T08:10:34.890Z,79.54
2018-11-07T08:11:41.722Z,79.66
2018-11-07T08:12:48.493Z,79.78
2018-11-07T08:13:55.347Z,79.91
2018-11-07T08:15:02.115Z,80.05
2018-11-07T08:16:08.976Z,80.16
2018-11-07T08:17:15.730Z,80.33
2018-11-07T08:18:22.512Z,80.46
2018-11-07T08:19:29.273Z,80.64
2018-11-07T08:20:36.039Z,80.77
2018-11-07T08:21:42.918Z,80.92
2018-11-07T08:22:49.690Z,81.07
2018-11-07T08:23:56.423Z,81.22
2018-11-07T08:25:03.282Z,81.36
2018-11-07T08:26:10.114Z,81.53
2018-11-07T08:27:16.945Z,81.66
2018-11-07T08:28:23.690Z,81.81
2018-11-07T08:29:30.458Z,81.97
2018-11-07T08:30:37.245Z,82.10
2018-11-07T08:31:44.049Z,82.25
2018-11-07T08:32:50.815Z,82.41
2018-11-07T08:33:57.541Z,82.58
2018-11-07T08:35:04.447Z,82.73
2018-11-07T08:36:11.256Z,82.88
2018-11-07T08:37:18.018Z,83.06
2018-11-07T08:38:24.922Z,83.21
2018-11-07T08:39:31.688Z,83.38
2018-11-07T08:40:38.444Z,83.54
2018-11-07T08:41:45.224Z,83.69
2018-11-07T08:42:52.064Z,83.87
2018-11-07T08:43:58.930Z,84.03
2018-11-07T08:45:05.710Z,84.18
2018-11-07T08:46:12.744Z,84.35
2018-11-07T08:47:19.628Z,84.51
2018-11-07T08:48:26.431Z,84.71
2018-11-07T08:49:33.174Z,84.89
2018-11-07T08:50:39.983Z,85.05
2018-11-07T08:51:46.782Z,85.23
2018-11-07T08:52:53.539Z,85.38
2018-11-07T08:54:00.326Z,85.54
2018-11-07T08:55:07.171Z,85.72
2018-11-07T08:56:14.210Z,85.91
2018-11-07T08:57:20.938Z,86.07
2018-11-07T08:58:27.699Z,86.26
2018-11-07T08:59:34.490Z,86.41
2018-11-07T09:00:41.302Z,86.55
2018-11-07T09:01:48.063Z,86.72
2018-11-07T09:02:54.862Z,86.90
2018-11-07T09:04:01.691Z,87.06
2018-11-07T09:05:08.546Z,87.21
2018-11-07T09:06:15.264Z,87.41
2018-11-07T09:07:22.066Z,87.57
2018-11-07T09:08:28.801Z,87.73
2018-11-07T09:09:35.549Z,87.92
2018-11-07T09:10:42.320Z,88.07
2018-11-07T09:11:49.174Z,88.22
2018-11-07T09:12:55.898Z,88.38
2018-11-07T09:14:02.664Z,88.54
2018-11-07T09:15:09.474Z,88.74
2018-11-07T09:16:16.408Z,88.90
2018-11-07T09:17:23.335Z,89.08
2018-11-07T09:18:30.105Z,89.22
2018-11-07T09:19:36.883Z,89.39
2018-11-07T09:20:43.612Z,89.55
2018-11-07T09:21:50.409Z,89.70
2018-11-07T09:22:57.215Z,89.87
2018-11-07T09:24:04.008Z,90.02
2018-11-07T09:25:10.742Z,90.19
2018-11-07T09:26:17.482Z,90.34
2018-11-07T09:27:24.414Z,90.54
2018-11-07T09:28:31.179Z,90.68
2018-11-07T09:29:38.244Z,90.82
2018-11-07T09:30:45.030Z,90.97
2018-11-07T09:31:51.782Z,91.12
2018-11-07T09:32:58.763Z,91.27
2018-11-07T09:34:05.498Z,91.41
2018-11-07T09:35:12.343Z,91.55
2018-11-07T09:36:19.438Z,91.68
2018-11-07T09:37:26.279Z,91.86
2018-11-07T09:38:33.014Z,92.00
2018-11-07T09:39:39.857Z,92.13
2018-11-07T09:40:46.602Z,92.31
2018-11-07T09:41:53.451Z,92.44
2018-11-07T09:43:00.286Z,92.58
2018-11-07T09:44:07.067Z,92.68
2018-11-07T09:45:13.931Z,92.79
2018-11-07T09:46:20.878Z,92.91
2018-11-07T09:47:27.777Z,93.01
2018-11-07T09:48:34.575Z,93.13
2018-11-07T09:49:41.470Z,93.24
2018-11-07T09:50:48.287Z,93.37
2018-11-07T09:51:55.051Z,93.45
2018-11-07T09:53:01.802Z,93.54
2018-11-07T09:54:08.625Z,93.61
2018-11-07T09:55:15.386Z,93.68
2018-11-07T09:56:22.276Z,93.75
2018-11-07T09:57:29.014Z,93.86
2018-11-07T09:58:35.782Z,93.95
2018-11-07T09:59:42.570Z,94.06
2018-11-07T10:00:49.350Z,94.14
2018-11-07T10:01:56.142Z,94.22
2018-11-07T10:03:02.915Z,94.27
2018-11-07T10:04:09.730Z,94.34
2018-11-07T10:05:16.466Z,94.41
2018-11-07T10:06:23.501Z,94.48
2018-11-07T10:07:30.230Z,94.55
2018-11-07T10:08:37.030Z,94.60
2018-11-07T10:09:43.826Z,94.67
2018-11-07T10:10:50.550Z,94.73
2018-11-07T10:11:57.291Z,94.79
2018-11-07T10:13:04.111Z,94.85
2018-11-07T10:14:10.927Z,94.87
2018-11-07T10:15:17.806Z,94.92
2018-11-07T10:16:24.550Z,94.92
2018-11-07T10:17:31.278Z,94.94
2018-11-07T10:18:38.158Z,94.94
2018-11-07T10:19:44.935Z,94.94
2018-11-07T10:20:51.678Z,94.96
2018-11-07T10:21:58.450Z,94.97
2018-11-07T10:23:05.190Z,94.97
2018-11-07T10:24:11.935Z,94.97
2018-11-07T10:25:18.678Z,94.98
2018-11-07T10:26:25.747Z,94.94
2018-11-07T10:27:33.025Z,94.92
2018-11-07T10:28:39.615Z,94.91
2018-11-07T10:29:47.759Z,94.87
2018-11-07T10:30:53.267Z,94.83
2018-11-07T10:32:00.127Z,94.79
2018-11-07T10:33:06.902Z,94.73
2018-11-07T10:34:13.651Z,94.66
2018-11-07T10:35:20.497Z,94.59
2018-11-07T10:36:27.245Z,94.53
2018-11-07T10:37:34.022Z,94.44
2018-11-07T10:38:40.854Z,94.37
2018-11-07T10:39:47.552Z,94.28
2018-11-07T10:40:54.369Z,94.19
2018-11-07T10:42:01.127Z,94.13
2018-11-07T10:43:08.070Z,94.03
2018-11-07T10:44:14.908Z,93.97
2018-11-07T10:45:21.657Z,93.90
2018-11-07T10:46:28.400Z,93.83
2018-11-07T10:47:35.228Z,93.81
2018-11-07T10:48:42.266Z,93.71
2018-11-07T10:49:49.283Z,93.62
2018-11-07T10:50:56.107Z,93.54
2018-11-07T10:52:02.907Z,93.43
2018-11-07T10:53:09.738Z,93.34
2018-11-07T10:54:18.131Z,93.18
2018-11-07T10:55:23.507Z,93.05
2018-11-07T10:56:30.475Z,92.96
2018-11-07T10:57:37.741Z,92.94
2018-11-07T10:58:44.038Z,92.88
2018-11-07T10:59:50.790Z,92.77
2018-11-07T11:00:57.542Z,92.62
2018-11-07T11:02:04.546Z,92.44
2018-11-07T11:03:11.622Z,92.33
2018-11-07T11:04:18.533Z,92.16
2018-11-07T11:05:25.442Z,91.99
2018-11-07T11:06:32.212Z,91.87
2018-11-07T11:07:39.018Z,91.70
2018-11-07T11:08:45.883Z,91.61
2018-11-07T11:09:52.680Z,91.62
2018-11-07T11:10:59.477Z,91.47
2018-11-07T11:12:06.236Z,91.31
2018-11-07T11:13:13.030Z,91.24
2018-11-07T11:14:19.816Z,91.08
2018-11-07T11:15:26.814Z,90.75
2018-11-07T11:16:33.583Z,90.58
2018-11-07T11:17:40.413Z,90.31
2018-11-07T11:18:47.186Z,89.97
2018-11-07T11:19:53.961Z,89.77
2018-11-07T11:21:00.768Z,89.62
2018-11-07T11:22:07.930Z,89.30
2018-11-07T11:23:14.747Z,89.00
2018-11-07T11:24:21.637Z,88.65
2018-11-07T11:25:28.402Z,88.39
2018-11-07T11:26:35.259Z,88.14
2018-11-07T11:27:42.045Z,87.73
2018-11-07T11:28:48.821Z,87.34
2018-11-07T11:29:55.626Z,87.11
2018-11-07T11:31:02.458Z,86.71
2018-11-07T11:32:09.280Z,86.38
2018-11-07T11:33:16.020Z,86.18
2018-11-07T11:34:22.932Z,85.91
2018-11-07T11:35:29.827Z,85.66
2018-11-07T11:36:36.593Z,85.30
2018-11-07T11:37:43.353Z,84.96
2018-11-07T11:38:50.143Z,84.63
2018-11-07T11:39:58.091Z,84.39
2018-11-07T11:41:03.898Z,84.02
2018-11-07T11:42:10.737Z,83.66
2018-11-07T11:43:17.508Z,83.32
2018-11-07T11:44:24.310Z,83.05
2018-11-07T11:45:31.290Z,82.68
2018-11-07T11:46:38.094Z,82.25
2018-11-07T11:47:45.028Z,82.03
2018-11-07T11:48:52.096Z,81.68
2018-11-07T11:49:59.136Z,81.49
2018-11-07T11:51:06.010Z,81.25
2018-11-07T11:52:13.186Z,81.01
2018-11-07T11:53:19.835Z,80.78
2018-11-07T11:54:26.630Z,80.51
2018-11-07T11:55:33.518Z,80.39
2018-11-07T11:56:40.391Z,80.22
2018-11-07T11:57:47.162Z,79.83
2018-11-07T11:58:54.093Z,79.66
2018-11-07T12:00:01.322Z,79.56
2018-11-07T12:01:08.139Z,79.47
2018-11-07T12:02:16.140Z,79.24
2018-11-07T12:03:22.250Z,79.21
2018-11-07T12:04:29.030Z,79.09
2018-11-07T12:05:36.301Z,78.60
2018-11-07T12:06:42.684Z,78.53
2018-11-07T12:07:49.426Z,78.38
2018-11-07T12:08:56.401Z,78.24
2018-11-07T12:10:03.151Z,77.71
2018-11-07T12:11:10.048Z,77.60
2018-11-07T12:12:16.837Z,77.58
2018-11-07T12:13:23.665Z,77.48
2018-11-07T12:14:30.507Z,77.46
2018-11-07T12:15:37.267Z,77.07
2018-11-07T12:16:44.032Z,76.95
2018-11-07T12:17:50.976Z,76.89
2018-11-07T12:18:57.842Z,76.16
2018-11-07T12:20:04.602Z,75.83
2018-11-07T12:21:11.501Z,75.54
2018-11-07T12:22:18.308Z,75.24
2018-11-07T12:23:25.498Z,74.99
2018-11-07T12:24:35.038Z,74.58
2018-11-07T12:25:38.637Z,74.45
2018-11-07T12:26:46.602Z,74.07
2018-11-07T12:27:52.446Z,73.88
2018-11-07T12:28:59.186Z,73.45
2018-11-07T12:30:05.960Z,73.15
2018-11-07T12:31:12.943Z,72.80
2018-11-07T12:32:19.674Z,72.65
2018-11-07T12:33:26.493Z,72.53
2018-11-07T12:34:33.334Z,72.39
2018-11-07T12:35:40.303Z,71.99
2018-11-07T12:36:47.034Z,71.75
2018-11-07T12:37:53.795Z,71.52
2018-11-07T12:39:01.330Z,71.21
2018-11-07T12:40:07.536Z,70.93
2018-11-07T12:41:14.943Z,70.70
2018-11-07T12:42:21.270Z,70.48
2018-11-07T12:43:28.272Z,70.20
2018-11-07T12:44:35.090Z,69.94
2018-11-07T12:45:41.989Z,69.77
2018-11-07T12:46:48.775Z,69.48
2018-11-07T12:47:55.548Z,69.26
2018-11-07T12:49:02.297Z,69.12
2018-11-07T12:50:09.594Z,68.93
2018-11-07T12:51:16.564Z,68.89
2018-11-07T12:52:23.319Z,68.68
2018-11-07T12:53:30.082Z,68.50
2018-11-07T12:54:36.966Z,68.37
2018-11-07T12:55:43.829Z,68.23
2018-11-07T12:56:50.695Z,67.99
2018-11-07T12:57:57.583Z,67.74
2018-11-07T12:59:04.249Z,67.57
2018-11-07T13:00:11.091Z,67.23
2018-11-07T13:01:18.192Z,67.08
2018-11-07T13:02:24.938Z,66.85
2018-11-07T13:03:31.699Z,66.75
2018-11-07T13:04:38.504Z,66.60
2018-11-07T13:05:45.218Z,66.41
2018-11-07T13:06:52.018Z,66.11
2018-11-07T13:07:58.947Z,65.89
2018-11-07T13:09:05.737Z,65.67
2018-11-07T13:10:12.999Z,65.52
2018-11-07T13:11:19.918Z,65.31
2018-11-07T13:12:26.622Z,65.12
2018-11-07T13:13:33.394Z,65.02
2018-11-07T13:14:40.223Z,64.88
2018-11-07T13:15:47.029Z,64.75
2018-11-07T13:16:53.860Z,64.56
2018-11-07T13:18:00.649Z,64.39
2018-11-07T13:19:07.402Z,64.26
2018-11-07T13:20:14.199Z,64.12
2018-11-07T13:21:21.286Z,64.06
2018-11-07T13:22:28.128Z,63.99
2018-11-07T13:23:34.901Z,63.83
2018-11-07T13:24:41.626Z,63.80
2018-11-07T13:25:48.459Z,63.67
2018-11-07T13:26:55.249Z,63.58
2018-11-07T13:28:02.005Z,63.48
2018-11-07T13:29:08.926Z,63.43
2018-11-07T13:30:15.728Z,63.41
2018-11-07T13:31:22.883Z,63.33
2018-11-07T13:32:29.621Z,63.20
2018-11-07T13:33:36.371Z,63.16
2018-11-07T13:34:43.145Z,63.13
2018-11-07T13:35:49.890Z,63.12
2018-11-07T13:36:56.735Z,63.18
2018-11-07T13:38:03.543Z,63.12
2018-11-07T13:39:10.453Z,63.11
2018-11-07T13:40:16.973Z,63.11
2018-11-07T13:41:24.002Z,63.15
2018-11-07T13:42:30.732Z,63.16
2018-11-07T13:43:37.519Z,63.17
2018-11-07T13:44:44.275Z,63.12
2018-11-07T13:45:51.095Z,63.18
2018-11-07T13:46:57.905Z,63.14
2018-11-07T13:48:04.643Z,63.21
2018-11-07T13:49:11.379Z,63.28
2018-11-07T13:50:18.139Z,63.46
2018-11-07T13:51:24.823Z,63.37
2018-11-07T13:52:31.611Z,63.36
2018-11-07T13:53:38.466Z,63.40
2018-11-07T13:54:45.173Z,63.54
2018-11-07T13:55:52.002Z,63.60
2018-11-07T13:56:58.758Z,63.76
2018-11-07T13:58:05.481Z,63.79
2018-11-07T13:59:12.258Z,63.87
2018-11-07T14:00:19.022Z,63.81
2018-11-07T14:01:25.982Z,63.86
2018-11-07T14:02:33.031Z,63.86
2018-11-07T14:03:39.812Z,63.96
2018-11-07T14:04:46.571Z,64.00
2018-11-07T14:05:53.374Z,64.15
2018-11-07T14:07:00.151Z,64.30
2018-11-07T14:08:06.906Z,64.30
2018-11-07T14:09:13.643Z,64.40
2018-11-07T14:10:20.487Z,64.53
2018-11-07T14:11:27.533Z,64.49
2018-11-07T14:12:34.298Z,64.59
2018-11-07T14:13:41.098Z,64.71
2018-11-07T14:14:47.911Z,64.79
2018-11-07T14:15:54.714Z,64.87
2018-11-07T14:17:01.478Z,64.79
2018-11-07T14:18:08.275Z,64.82
2018-11-07T14:19:17.981Z,64.83
2018-11-07T14:20:21.877Z,64.85